createdAt,value
2017-12-21T00:00:10.595Z,1032.91
2017-12-21T00:01:32.335Z,1032.92
2017-12-21T00:02:54.534Z,1032.9
2017-12-21T00:04:16.454Z,1032.87
2017-12-21T00:05:38.411Z,1032.82
2017-12-21T00:07:00.007Z,1032.82
2017-12-21T00:08:21.362Z,1032.91
2017-12-21T00:09:42.978Z,1032.94
2017-12-21T00:11:04.825Z,1032.9
2017-12-21T00:12:26.707Z,1032.92
2017-12-21T00:13:48.328Z,1032.86
2017-12-21T00:15:10.213Z,1032.84
2017-12-21T00:16:31.882Z,1032.82
2017-12-21T00:17:53.329Z,1032.8
2017-12-21T00:19:15.226Z,1032.85
2017-12-21T00:20:37.088Z,1032.83
2017-12-21T00:21:58.960Z,1032.82
2017-12-21T00:23:20.575Z,1032.78
2017-12-21T00:24:42.262Z,1032.79
2017-12-21T00:26:04.128Z,1032.76
2017-12-21T00:27:25.510Z,1032.75
2017-12-21T00:28:47.388Z,1032.69
2017-12-21T00:30:08.983Z,1032.66
2017-12-21T00:31:30.606Z,1032.63
2017-12-21T00:32:51.728Z,1032.6
2017-12-21T00:34:13.623Z,1032.58
2017-12-21T00:35:35.204Z,1032.6
2017-12-21T00:36:57.066Z,1032.64
2017-12-21T00:38:18.998Z,1032.66
2017-12-21T00:39:40.874Z,1032.65
2017-12-21T00:41:02.464Z,1032.64
2017-12-21T00:42:24.424Z,1032.63
2017-12-21T00:43:46.036Z,1032.56
2017-12-21T00:45:07.835Z,1032.53
2017-12-21T00:46:29.564Z,1032.54
2017-12-21T00:47:51.155Z,1032.56
2017-12-21T00:49:13.035Z,1032.6
2017-12-21T00:50:34.915Z,1032.53
2017-12-21T00:51:56.801Z,1032.56
2017-12-21T00:53:18.694Z,1032.56
2017-12-21T00:54:40.835Z,1032.51
2017-12-21T00:56:02.471Z,1032.49
2017-12-21T00:57:24.225Z,1032.53
2017-12-21T00:58:46.158Z,1032.51
2017-12-21T01:00:07.864Z,1032.53
2017-12-21T01:01:29.221Z,1032.48
2017-12-21T01:02:50.821Z,1032.48
2017-12-21T01:04:12.508Z,1032.49
2017-12-21T01:05:33.600Z,1032.58
2017-12-21T01:06:55.293Z,1032.54
2017-12-21T01:08:16.377Z,1032.51
2017-12-21T01:09:37.988Z,1032.51
2017-12-21T01:10:59.621Z,1032.5
2017-12-21T01:12:21.794Z,1032.52
2017-12-21T01:13:43.405Z,1032.49
2017-12-21T01:15:04.478Z,1032.47
2017-12-21T01:16:26.124Z,1032.48
2017-12-21T01:17:47.988Z,1032.43
2017-12-21T01:19:10.126Z,1032.45
2017-12-21T01:20:31.726Z,1032.42
2017-12-21T01:21:53.363Z,1032.43
2017-12-21T01:23:14.492Z,1032.43
2017-12-21T01:24:35.558Z,1032.4
2017-12-21T01:25:57.061Z,1032.37
2017-12-21T01:27:18.783Z,1032.38
2017-12-21T01:28:40.676Z,1032.36
2017-12-21T01:30:02.916Z,1032.34
2017-12-21T01:31:25.141Z,1032.38
2017-12-21T01:32:46.484Z,1032.39
2017-12-21T01:34:08.095Z,1032.38
2017-12-21T01:35:29.720Z,1032.39
2017-12-21T01:36:51.573Z,1032.4
2017-12-21T01:38:13.525Z,1032.38
2017-12-21T01:39:35.485Z,1032.33
2017-12-21T01:40:57.083Z,1032.33
2017-12-21T01:42:18.414Z,1032.34
2017-12-21T01:43:40.562Z,1032.33
2017-12-21T01:45:02.455Z,1032.32
2017-12-21T01:46:24.092Z,1032.35
2017-12-21T01:47:45.964Z,1032.34
2017-12-21T01:49:07.294Z,1032.31
2017-12-21T01:50:28.902Z,1032.33
2017-12-21T01:51:50.497Z,1032.36
2017-12-21T01:53:12.335Z,1032.32
2017-12-21T01:54:34.265Z,1032.29
2017-12-21T01:55:56.384Z,1032.32
2017-12-21T01:57:17.967Z,1032.32
2017-12-21T01:58:39.544Z,1032.32
2017-12-21T02:00:01.144Z,1032.35
2017-12-21T02:01:22.745Z,1032.33
2017-12-21T02:02:44.629Z,1032.41
2017-12-21T02:04:06.242Z,1032.41
2017-12-21T02:05:27.851Z,1032.41
2017-12-21T02:06:49.726Z,1032.39
2017-12-21T02:08:11.431Z,1032.43
2017-12-21T02:09:33.011Z,1032.39
2017-12-21T02:10:54.590Z,1032.44
2017-12-21T02:12:16.244Z,1032.44
2017-12-21T02:13:37.596Z,1032.44
2017-12-21T02:14:59.220Z,1032.38
2017-12-21T02:16:20.846Z,1032.38
2017-12-21T02:17:43.043Z,1032.39
2017-12-21T02:19:04.648Z,1032.42
2017-12-21T02:20:26.511Z,1032.42
2017-12-21T02:21:48.522Z,1032.39
2017-12-21T02:23:10.143Z,1032.33
2017-12-21T02:24:32.265Z,1032.35
2017-12-21T02:25:54.014Z,1032.34
2017-12-21T02:27:16.109Z,1032.37
2017-12-21T02:28:37.505Z,1032.35
2017-12-21T02:29:59.105Z,1032.38
2017-12-21T02:31:20.451Z,1032.38
2017-12-21T02:32:42.306Z,1032.35
2017-12-21T02:34:04.171Z,1032.35
2017-12-21T02:35:25.772Z,1032.34
2017-12-21T02:36:47.641Z,1032.3
2017-12-21T02:38:09.214Z,1032.29
2017-12-21T02:39:30.803Z,1032.26
2017-12-21T02:40:52.523Z,1032.26
2017-12-21T02:42:13.937Z,1032.27
2017-12-21T02:43:36.124Z,1032.22
2017-12-21T02:44:58.075Z,1032.16
2017-12-21T02:46:19.797Z,1032.16
2017-12-21T02:47:41.409Z,1032.19
2017-12-21T02:49:03.606Z,1032.18
2017-12-21T02:50:24.689Z,1032.14
2017-12-21T02:51:46.361Z,1032.18
2017-12-21T02:53:07.953Z,1032.06
2017-12-21T02:54:29.628Z,1032.09
2017-12-21T02:55:51.693Z,1032.04
2017-12-21T02:57:13.441Z,1032.02
2017-12-21T02:58:35.028Z,1032.07
2017-12-21T02:59:56.650Z,1032.1
2017-12-21T03:01:17.982Z,1032.06
2017-12-21T03:02:40.278Z,1032.09
2017-12-21T03:04:02.417Z,1032.1
2017-12-21T03:05:23.830Z,1032.1
2017-12-21T03:06:45.183Z,1032.11
2017-12-21T03:08:06.785Z,1032.1
2017-12-21T03:09:28.381Z,1032.09
2017-12-21T03:10:50.495Z,1032.1
2017-12-21T03:12:12.382Z,1032.12
2017-12-21T03:13:33.973Z,1032.08
2017-12-21T03:14:55.880Z,1032.1
2017-12-21T03:16:17.753Z,1032.09
2017-12-21T03:17:39.347Z,1032.1
2017-12-21T03:19:01.229Z,1032.04
2017-12-21T03:20:22.841Z,1032.05
2017-12-21T03:21:44.739Z,1032.06
2017-12-21T03:23:06.667Z,1032.07
2017-12-21T03:24:28.276Z,1032.09
2017-12-21T03:25:50.173Z,1032.13
2017-12-21T03:27:11.805Z,1032.1
2017-12-21T03:28:33.706Z,1032.09
2017-12-21T03:29:55.336Z,1032.11
2017-12-21T03:31:17.196Z,1032.06
2017-12-21T03:32:39.474Z,1032.07
2017-12-21T03:34:01.126Z,1032.08
2017-12-21T03:35:22.493Z,1032.06
2017-12-21T03:36:44.093Z,1032.05
2017-12-21T03:38:05.693Z,1032.05
2017-12-21T03:39:27.215Z,1032.06
2017-12-21T03:40:48.693Z,1032.05
2017-12-21T03:42:10.304Z,1032.01
2017-12-21T03:43:31.684Z,1032.05
2017-12-21T03:44:53.285Z,1031.97
2017-12-21T03:46:14.627Z,1032
2017-12-21T03:47:36.223Z,1032.01
2017-12-21T03:48:57.752Z,1032.04
2017-12-21T03:50:19.595Z,1032.03
2017-12-21T03:51:41.479Z,1032.02
2017-12-21T03:53:03.351Z,1032.06
2017-12-21T03:54:24.962Z,1032.04
2017-12-21T03:55:46.685Z,1032.07
2017-12-21T03:57:08.036Z,1032.05
2017-12-21T03:58:29.624Z,1032.05
2017-12-21T03:59:51.484Z,1032.02
2017-12-21T04:01:13.377Z,1032.04
2017-12-21T04:02:35.594Z,1032.03
2017-12-21T04:03:57.188Z,1032.03
2017-12-21T04:05:18.774Z,1032
2017-12-21T04:06:39.634Z,1031.98
2017-12-21T04:08:01.375Z,1031.9
2017-12-21T04:09:22.455Z,1031.9
2017-12-21T04:10:44.324Z,1031.93
2017-12-21T04:12:06.191Z,1031.94
2017-12-21T04:13:27.822Z,1031.89
2017-12-21T04:14:49.681Z,1031.93
2017-12-21T04:16:11.553Z,1031.91
2017-12-21T04:17:33.159Z,1031.91
2017-12-21T04:18:54.759Z,1031.94
2017-12-21T04:20:16.407Z,1031.91
2017-12-21T04:21:38.756Z,1031.88
2017-12-21T04:23:00.358Z,1031.83
2017-12-21T04:24:22.105Z,1031.86
2017-12-21T04:25:43.951Z,1031.86
2017-12-21T04:27:05.814Z,1031.85
2017-12-21T04:28:27.946Z,1031.86
2017-12-21T04:29:49.453Z,1031.85
2017-12-21T04:31:11.423Z,1031.87
2017-12-21T04:32:33.054Z,1031.94
2017-12-21T04:33:54.935Z,1031.9
2017-12-21T04:35:16.283Z,1031.89
2017-12-21T04:36:37.883Z,1031.89
2017-12-21T04:37:59.811Z,1031.89
2017-12-21T04:39:21.434Z,1031.89
2017-12-21T04:40:43.409Z,1031.88
2017-12-21T04:42:04.767Z,1031.91
2017-12-21T04:43:26.907Z,1031.9
2017-12-21T04:44:48.776Z,1031.86
2017-12-21T04:46:10.644Z,1031.93
2017-12-21T04:47:32.248Z,1031.93
2017-12-21T04:48:54.417Z,1031.93
2017-12-21T04:50:16.075Z,1031.95
2017-12-21T04:51:37.729Z,1031.96
2017-12-21T04:52:59.879Z,1032
2017-12-21T04:54:21.740Z,1031.98
2017-12-21T04:55:43.644Z,1032
2017-12-21T04:57:04.995Z,1031.98
2017-12-21T04:58:26.340Z,1032.03
2017-12-21T04:59:48.449Z,1032.01
2017-12-21T05:01:10.585Z,1032.01
2017-12-21T05:02:32.541Z,1032.01
2017-12-21T05:03:54.208Z,1032.02
2017-12-21T05:05:16.132Z,1032.03
2017-12-21T05:06:38.087Z,1032
2017-12-21T05:08:00.339Z,1031.99
2017-12-21T05:09:22.224Z,1031.96
2017-12-21T05:10:43.847Z,1031.96
2017-12-21T05:12:05.704Z,1031.99
2017-12-21T05:13:27.555Z,1031.99
2017-12-21T05:14:49.152Z,1031.99
2017-12-21T05:16:11.271Z,1031.99
2017-12-21T05:17:33.155Z,1032.03
2017-12-21T05:18:54.747Z,1032.03
2017-12-21T05:20:16.357Z,1032.04
2017-12-21T05:21:37.551Z,1032.02
2017-12-21T05:22:58.648Z,1032.06
2017-12-21T05:24:20.278Z,1032.09
2017-12-21T05:25:41.621Z,1032.07
2017-12-21T05:27:03.647Z,1032.13
2017-12-21T05:28:25.568Z,1032.12
2017-12-21T05:29:47.440Z,1032.13
2017-12-21T05:31:08.793Z,1032.15
2017-12-21T05:32:30.451Z,1032.19
2017-12-21T05:33:52.368Z,1032.18
2017-12-21T05:35:13.984Z,1032.19
2017-12-21T05:36:35.333Z,1032.13
2017-12-21T05:37:57.198Z,1032.17
2017-12-21T05:39:18.974Z,1032.17
2017-12-21T05:40:40.855Z,1032.11
2017-12-21T05:42:01.933Z,1032.13
2017-12-21T05:43:23.344Z,1032.12
2017-12-21T05:44:45.224Z,1032.09
2017-12-21T05:46:06.584Z,1032.13
2017-12-21T05:47:28.449Z,1032.11
2017-12-21T05:48:50.338Z,1032.13
2017-12-21T05:50:11.945Z,1032.13
2017-12-21T05:51:33.920Z,1032.05
2017-12-21T05:52:55.857Z,1032.04
2017-12-21T05:54:17.453Z,1032.06
2017-12-21T05:55:39.319Z,1032.06
2017-12-21T05:57:00.424Z,1032.06
2017-12-21T05:58:22.345Z,1032.05
2017-12-21T05:59:44.265Z,1032.05
2017-12-21T06:01:05.751Z,1032.07
2017-12-21T06:02:27.094Z,1032.11
2017-12-21T06:03:49.097Z,1032.1
2017-12-21T06:05:10.938Z,1032.14
2017-12-21T06:06:32.824Z,1032.11
2017-12-21T06:07:54.950Z,1032.13
2017-12-21T06:09:16.641Z,1032.1
2017-12-21T06:10:38.499Z,1032.17
2017-12-21T06:12:00.373Z,1032.15
2017-12-21T06:13:22.019Z,1032.18
2017-12-21T06:14:43.667Z,1032.21
2017-12-21T06:16:05.528Z,1032.19
2017-12-21T06:17:27.394Z,1032.19
2017-12-21T06:18:49.564Z,1032.23
2017-12-21T06:20:11.471Z,1032.29
2017-12-21T06:21:32.814Z,1032.27
2017-12-21T06:22:54.544Z,1032.29
2017-12-21T06:24:16.466Z,1032.33
2017-12-21T06:25:38.335Z,1032.31
2017-12-21T06:26:59.412Z,1032.34
2017-12-21T06:28:20.764Z,1032.33
2017-12-21T06:29:42.642Z,1032.33
2017-12-21T06:31:04.544Z,1032.31
2017-12-21T06:32:26.454Z,1032.33
2017-12-21T06:33:48.089Z,1032.33
2017-12-21T06:35:09.442Z,1032.34
2017-12-21T06:36:31.036Z,1032.4
2017-12-21T06:37:53.151Z,1032.37
2017-12-21T06:39:15.386Z,1032.4
2017-12-21T06:40:37.459Z,1032.41
2017-12-21T06:41:59.592Z,1032.35
2017-12-21T06:43:20.934Z,1032.33
2017-12-21T06:44:43.198Z,1032.35
2017-12-21T06:46:05.036Z,1032.37
2017-12-21T06:47:26.887Z,1032.41
2017-12-21T06:48:48.503Z,1032.36
2017-12-21T06:50:10.723Z,1032.36
2017-12-21T06:51:32.949Z,1032.34
2017-12-21T06:52:54.570Z,1032.36
2017-12-21T06:54:16.199Z,1032.32
2017-12-21T06:55:37.552Z,1032.26
2017-12-21T06:56:58.893Z,1032.3
2017-12-21T06:58:20.574Z,1032.25
2017-12-21T06:59:41.894Z,1032.24
2017-12-21T07:01:03.868Z,1032.25
2017-12-21T07:02:25.743Z,1032.24
2017-12-21T07:03:47.903Z,1032.23
2017-12-21T07:05:09.795Z,1032.27
2017-12-21T07:06:31.655Z,1032.29
2017-12-21T07:07:53.265Z,1032.32
2017-12-21T07:09:15.471Z,1032.37
2017-12-21T07:10:37.114Z,1032.38
2017-12-21T07:11:58.191Z,1032.35
2017-12-21T07:13:20.324Z,1032.33
2017-12-21T07:14:41.640Z,1032.36
2017-12-21T07:16:03.249Z,1032.4
2017-12-21T07:17:25.432Z,1032.38
2017-12-21T07:18:47.081Z,1032.39
2017-12-21T07:20:08.693Z,1032.4
2017-12-21T07:21:29.769Z,1032.38
2017-12-21T07:22:51.422Z,1032.37
2017-12-21T07:24:13.284Z,1032.3
2017-12-21T07:25:34.674Z,1032.28
2017-12-21T07:26:56.545Z,1032.3
2017-12-21T07:28:18.414Z,1032.33
2017-12-21T07:29:40.554Z,1032.39
2017-12-21T07:31:02.150Z,1032.41
2017-12-21T07:32:24.532Z,1032.42
2017-12-21T07:33:46.465Z,1032.41
2017-12-21T07:35:07.815Z,1032.4
2017-12-21T07:36:29.772Z,1032.42
2017-12-21T07:37:51.113Z,1032.37
2017-12-21T07:39:12.723Z,1032.4
2017-12-21T07:40:34.096Z,1032.4
2017-12-21T07:41:55.830Z,1032.4
2017-12-21T07:43:17.439Z,1032.36
2017-12-21T07:44:38.798Z,1032.4
2017-12-21T07:46:00.514Z,1032.35
2017-12-21T07:47:22.133Z,1032.34
2017-12-21T07:48:44.034Z,1032.37
2017-12-21T07:50:05.718Z,1032.29
2017-12-21T07:51:27.890Z,1032.21
2017-12-21T07:52:48.976Z,1032.24
2017-12-21T07:54:10.331Z,1032.27
2017-12-21T07:55:32.316Z,1032.18
2017-12-21T07:56:53.726Z,1032.25
2017-12-21T07:58:15.640Z,1032.27
2017-12-21T07:59:37.242Z,1032.28
2017-12-21T08:00:59.366Z,1032.23
2017-12-21T08:02:21.618Z,1032.26
2017-12-21T08:03:43.064Z,1032.25
2017-12-21T08:05:05.224Z,1032.27
2017-12-21T08:06:27.467Z,1032.32
2017-12-21T08:07:49.199Z,1032.31
2017-12-21T08:09:11.125Z,1032.28
2017-12-21T08:10:33.088Z,1032.3
2017-12-21T08:11:54.812Z,1032.32
2017-12-21T08:13:16.425Z,1032.29
2017-12-21T08:14:38.034Z,1032.28
2017-12-21T08:16:00.151Z,1032.23
2017-12-21T08:17:22.034Z,1032.26
2017-12-21T08:18:43.997Z,1032.31
2017-12-21T08:20:05.087Z,1032.32
2017-12-21T08:21:27.380Z,1032.34
2017-12-21T08:22:49.317Z,1032.34
2017-12-21T08:24:11.174Z,1032.36
2017-12-21T08:25:32.566Z,1032.39
2017-12-21T08:26:54.424Z,1032.42
2017-12-21T08:28:16.672Z,1032.48
2017-12-21T08:29:38.077Z,1032.47
2017-12-21T08:30:59.414Z,1032.5
2017-12-21T08:32:21.323Z,1032.51
2017-12-21T08:33:43.450Z,1032.52
2017-12-21T08:35:04.794Z,1032.58
2017-12-21T08:36:26.429Z,1032.61
2017-12-21T08:37:48.498Z,1032.69
2017-12-21T08:39:10.128Z,1032.71
2017-12-21T08:40:31.745Z,1032.75
2017-12-21T08:41:53.353Z,1032.81
2017-12-21T08:43:15.255Z,1032.8
2017-12-21T08:44:37.373Z,1032.93
2017-12-21T08:45:59.023Z,1032.86
2017-12-21T08:47:20.685Z,1032.93
2017-12-21T08:48:43.101Z,1032.95
2017-12-21T08:50:05.079Z,1032.95
2017-12-21T08:51:26.715Z,1032.93
2017-12-21T08:52:48.586Z,1032.95
2017-12-21T08:54:10.624Z,1032.98
2017-12-21T08:55:32.527Z,1033.02
2017-12-21T08:56:53.682Z,1033.03
2017-12-21T08:58:15.534Z,1033.12
2017-12-21T08:59:37.235Z,1033.15
2017-12-21T09:00:59.435Z,1033.09
2017-12-21T09:02:21.329Z,1033.09
2017-12-21T09:03:42.729Z,1033.1
2017-12-21T09:05:04.065Z,1033.08
2017-12-21T09:06:25.975Z,1033.12
2017-12-21T09:07:47.836Z,1033.07
2017-12-21T09:09:09.814Z,1033.08
2017-12-21T09:10:31.493Z,1033.12
2017-12-21T09:11:53.615Z,1033.2
2017-12-21T09:13:15.539Z,1033.28
2017-12-21T09:14:36.969Z,1033.26
2017-12-21T09:15:58.693Z,1033.25
2017-12-21T09:17:20.345Z,1033.24
2017-12-21T09:18:42.224Z,1033.31
2017-12-21T09:20:03.338Z,1033.38
2017-12-21T09:21:25.574Z,1033.42
2017-12-21T09:22:47.735Z,1033.55
2017-12-21T09:24:09.381Z,1033.51
2017-12-21T09:25:31.007Z,1033.57
2017-12-21T09:26:52.060Z,1033.54
2017-12-21T09:28:14.012Z,1033.54
2017-12-21T09:29:35.633Z,1033.54
2017-12-21T09:30:57.253Z,1033.49
2017-12-21T09:32:19.513Z,1033.49
2017-12-21T09:33:41.148Z,1033.53
2017-12-21T09:35:03.291Z,1033.48
2017-12-21T09:36:24.904Z,1033.41
2017-12-21T09:37:46.753Z,1033.45
2017-12-21T09:39:08.724Z,1033.42
2017-12-21T09:40:30.109Z,1033.38
2017-12-21T09:41:52.824Z,1033.41
2017-12-21T09:43:14.674Z,1033.37
2017-12-21T09:44:36.936Z,1033.4
2017-12-21T09:45:58.908Z,1033.41
2017-12-21T09:47:19.995Z,1033.47
2017-12-21T09:48:41.607Z,1033.42
2017-12-21T09:50:03.775Z,1033.48
2017-12-21T09:51:25.374Z,1033.49
2017-12-21T09:52:47.088Z,1033.49
2017-12-21T09:54:08.916Z,1033.48
2017-12-21T09:55:30.997Z,1033.44
2017-12-21T09:56:53.117Z,1033.45
2017-12-21T09:58:15.254Z,1033.46
2017-12-21T09:59:36.900Z,1033.45
2017-12-21T10:00:59.071Z,1033.51
2017-12-21T10:02:21.001Z,1033.47
2017-12-21T10:03:43.109Z,1033.46
2017-12-21T10:05:04.845Z,1033.44
2017-12-21T10:06:26.485Z,1033.48
2017-12-21T10:07:48.381Z,1033.48
2017-12-21T10:09:09.973Z,1033.54
2017-12-21T10:10:31.895Z,1033.53
2017-12-21T10:11:53.617Z,1033.55
2017-12-21T10:13:15.591Z,1033.53
2017-12-21T10:14:37.252Z,1033.56
2017-12-21T10:15:58.597Z,1033.49
2017-12-21T10:17:19.952Z,1033.46
2017-12-21T10:18:41.609Z,1033.39
2017-12-21T10:20:03.203Z,1033.39
2017-12-21T10:21:25.153Z,1033.38
2017-12-21T10:22:47.572Z,1033.37
2017-12-21T10:24:09.101Z,1033.43
2017-12-21T10:25:30.966Z,1033.39
2017-12-21T10:26:52.579Z,1033.4
2017-12-21T10:28:14.750Z,1033.45
2017-12-21T10:29:36.412Z,1033.48
2017-12-21T10:30:57.496Z,1033.54
2017-12-21T10:32:19.616Z,1033.51
2017-12-21T10:33:41.557Z,1033.52
2017-12-21T10:35:03.176Z,1033.49
2017-12-21T10:36:24.774Z,1033.53
2017-12-21T10:37:46.273Z,1033.44
2017-12-21T10:39:07.732Z,1033.45
2017-12-21T10:40:29.461Z,1033.41
2017-12-21T10:41:50.922Z,1033.4
2017-12-21T10:43:12.978Z,1033.39
2017-12-21T10:44:35.145Z,1033.38
2017-12-21T10:45:56.756Z,1033.37
2017-12-21T10:47:18.865Z,1033.38
2017-12-21T10:48:40.872Z,1033.38
2017-12-21T10:50:02.836Z,1033.34
2017-12-21T10:51:24.760Z,1033.39
2017-12-21T10:52:46.992Z,1033.37
2017-12-21T10:54:08.602Z,1033.35
2017-12-21T10:55:30.197Z,1033.32
2017-12-21T10:56:52.345Z,1033.3
2017-12-21T10:58:14.483Z,1033.35
2017-12-21T10:59:36.247Z,1033.37
2017-12-21T11:00:58.103Z,1033.34
2017-12-21T11:02:19.904Z,1033.37
2017-12-21T11:03:41.839Z,1033.37
2017-12-21T11:05:03.204Z,1033.43
2017-12-21T11:06:25.050Z,1033.42
2017-12-21T11:07:47.295Z,1033.43
2017-12-21T11:09:09.306Z,1033.4
2017-12-21T11:10:30.663Z,1033.37
2017-12-21T11:11:52.292Z,1033.42
2017-12-21T11:13:14.183Z,1033.51
2017-12-21T11:14:35.901Z,1033.52
2017-12-21T11:15:56.988Z,1033.54
2017-12-21T11:17:18.985Z,1033.57
2017-12-21T11:18:40.852Z,1033.57
2017-12-21T11:20:02.445Z,1033.61
2017-12-21T11:21:24.064Z,1033.55
2017-12-21T11:22:46.191Z,1033.54
2017-12-21T11:24:08.142Z,1033.55
2017-12-21T11:25:30.245Z,1033.5
2017-12-21T11:26:51.880Z,1033.48
2017-12-21T11:28:13.502Z,1033.44
2017-12-21T11:29:35.112Z,1033.39
2017-12-21T11:30:56.761Z,1033.4
2017-12-21T11:32:18.489Z,1033.44
2017-12-21T11:33:40.380Z,1033.38
2017-12-21T11:35:02.011Z,1033.37
2017-12-21T11:36:23.892Z,1033.39
2017-12-21T11:37:45.864Z,1033.33
2017-12-21T11:39:07.474Z,1033.35
2017-12-21T11:40:29.482Z,1033.35
2017-12-21T11:41:51.372Z,1033.31
2017-12-21T11:43:12.719Z,1033.27
2017-12-21T11:44:34.339Z,1033.24
2017-12-21T11:45:56.363Z,1033.22
2017-12-21T11:47:18.541Z,1033.2
2017-12-21T11:48:40.430Z,1033.2
2017-12-21T11:50:02.685Z,1033.19
2017-12-21T11:51:24.832Z,1033.19
2017-12-21T11:52:46.694Z,1033.18
2017-12-21T11:54:08.924Z,1033.18
2017-12-21T11:55:30.583Z,1033.17
2017-12-21T11:56:52.563Z,1033.18
2017-12-21T11:58:14.240Z,1033.21
2017-12-21T11:59:36.167Z,1033.18
2017-12-21T12:00:58.118Z,1033.16
2017-12-21T12:02:19.729Z,1033.13
2017-12-21T12:03:41.660Z,1033.11
2017-12-21T12:05:03.643Z,1033.13
2017-12-21T12:06:26.078Z,1033.17
2017-12-21T12:07:47.961Z,1033.16
2017-12-21T12:09:09.584Z,1033.14
2017-12-21T12:10:30.964Z,1033.13
2017-12-21T12:11:53.100Z,1033.14
2017-12-21T12:13:15.274Z,1033.12
2017-12-21T12:14:37.166Z,1033.07
2017-12-21T12:15:58.901Z,1033.06
2017-12-21T12:17:20.781Z,1033.03
2017-12-21T12:18:42.640Z,1033.09
2017-12-21T12:20:04.305Z,1033.15
2017-12-21T12:21:26.022Z,1033.11
2017-12-21T12:22:47.689Z,1033.09
2017-12-21T12:24:09.576Z,1033.09
2017-12-21T12:25:31.562Z,1033.06
2017-12-21T12:26:53.473Z,1033.09
2017-12-21T12:28:15.379Z,1033.08
2017-12-21T12:29:36.817Z,1033.07
2017-12-21T12:30:58.984Z,1033.07
2017-12-21T12:32:21.004Z,1033.06
2017-12-21T12:33:42.900Z,1033.07
2017-12-21T12:35:05.153Z,1033.02
2017-12-21T12:36:26.748Z,1033.04
2017-12-21T12:37:48.475Z,1032.97
2017-12-21T12:39:10.343Z,1033.01
2017-12-21T12:40:31.721Z,1033.04
2017-12-21T12:41:53.947Z,1033.04
2017-12-21T12:43:15.919Z,1033.07
2017-12-21T12:44:37.644Z,1033.09
2017-12-21T12:45:59.545Z,1033.12
2017-12-21T12:47:21.487Z,1033.18
2017-12-21T12:48:43.705Z,1033.17
2017-12-21T12:50:05.587Z,1033.15
2017-12-21T12:51:27.468Z,1033.13
2017-12-21T12:52:49.127Z,1033.13
2017-12-21T12:54:11.262Z,1033.11
2017-12-21T12:55:33.389Z,1033.13
2017-12-21T12:56:55.137Z,1033.13
2017-12-21T12:58:17.283Z,1033.12
2017-12-21T12:59:39.175Z,1033.16
2017-12-21T13:01:00.546Z,1033.1
2017-12-21T13:02:22.186Z,1033.18
2017-12-21T13:03:44.092Z,1033.19
2017-12-21T13:05:06.251Z,1033.2
2017-12-21T13:06:28.306Z,1033.2
2017-12-21T13:07:49.975Z,1033.24
2017-12-21T13:09:12.120Z,1033.36
2017-12-21T13:10:34.265Z,1033.36
2017-12-21T13:11:56.160Z,1033.37
2017-12-21T13:13:18.307Z,1033.33
2017-12-21T13:14:40.303Z,1033.27
2017-12-21T13:16:02.621Z,1033.29
2017-12-21T13:17:24.592Z,1033.24
2017-12-21T13:18:46.551Z,1033.23
2017-12-21T13:20:08.270Z,1033.18
2017-12-21T13:21:30.401Z,1033.13
2017-12-21T13:22:52.287Z,1033.05
2017-12-21T13:24:14.752Z,1032.96
2017-12-21T13:25:36.616Z,1032.94
2017-12-21T13:26:58.863Z,1032.82
2017-12-21T13:28:20.744Z,1032.84
2017-12-21T13:29:42.883Z,1032.82
2017-12-21T13:31:04.527Z,1032.78
2017-12-21T13:32:26.306Z,1032.78
2017-12-21T13:33:48.380Z,1032.77
2017-12-21T13:35:10.281Z,1032.73
2017-12-21T13:36:32.185Z,1032.77
2017-12-21T13:37:54.115Z,1032.78
2017-12-21T13:39:15.616Z,1032.76
2017-12-21T13:40:37.821Z,1032.72
2017-12-21T13:41:59.761Z,1032.74
2017-12-21T13:43:21.682Z,1032.78
2017-12-21T13:44:43.863Z,1032.83
2017-12-21T13:46:06.010Z,1032.86
2017-12-21T13:47:27.905Z,1032.9
2017-12-21T13:48:49.519Z,1032.91
2017-12-21T13:50:10.893Z,1032.95
2017-12-21T13:51:33.340Z,1032.99
2017-12-21T13:52:55.484Z,1033.07
2017-12-21T13:54:17.367Z,1033.06
2017-12-21T13:55:39.334Z,1033.09
2017-12-21T13:57:01.044Z,1033.14
2017-12-21T13:58:23.236Z,1033.09
2017-12-21T13:59:45.389Z,1033.1
2017-12-21T14:01:07.158Z,1033.13
2017-12-21T14:02:29.645Z,1033.11
2017-12-21T14:03:51.783Z,1033.18
2017-12-21T14:05:13.647Z,1033.13
2017-12-21T14:06:35.759Z,1033.15
2017-12-21T14:07:57.106Z,1033.18
2017-12-21T14:09:18.988Z,1033.19
2017-12-21T14:10:41.360Z,1033.27
2017-12-21T14:12:03.509Z,1033.31
2017-12-21T14:13:25.414Z,1033.3
2017-12-21T14:14:47.035Z,1033.25
2017-12-21T14:16:09.041Z,1033.18
2017-12-21T14:17:30.950Z,1033.15
2017-12-21T14:18:53.146Z,1033.13
2017-12-21T14:20:15.037Z,1033.18
2017-12-21T14:21:36.732Z,1033.22
2017-12-21T14:22:59.204Z,1033.22
2017-12-21T14:24:20.827Z,1033.22
2017-12-21T14:25:42.713Z,1033.22
2017-12-21T14:27:04.568Z,1033.2
2017-12-21T14:28:26.472Z,1033.12
2017-12-21T14:29:48.635Z,1033.07
2017-12-21T14:31:10.533Z,1033.13
2017-12-21T14:32:32.195Z,1033.15
2017-12-21T14:33:54.680Z,1033.14
2017-12-21T14:35:16.665Z,1033.11
2017-12-21T14:36:38.812Z,1033.19
2017-12-21T14:38:01.044Z,1033.16
2017-12-21T14:39:23.028Z,1033.13
2017-12-21T14:40:45.185Z,1033.11
2017-12-21T14:42:07.072Z,1033.09
2017-12-21T14:43:29.146Z,1033.05
2017-12-21T14:44:51.486Z,1033.06
2017-12-21T14:46:13.678Z,1033.1
2017-12-21T14:47:35.868Z,1033.09
2017-12-21T14:48:57.991Z,1033.13
2017-12-21T14:50:20.419Z,1033.12
2017-12-21T14:51:42.304Z,1033.11
2017-12-21T14:53:04.225Z,1033.13
2017-12-21T14:54:25.862Z,1033.14
2017-12-21T14:55:47.807Z,1033.16
2017-12-21T14:57:10.035Z,1033.17
2017-12-21T14:58:32.041Z,1033.21
2017-12-21T14:59:53.422Z,1033.15
2017-12-21T15:01:15.623Z,1033.11
2017-12-21T15:02:38.788Z,1033.1
2017-12-21T15:04:00.975Z,1033.14
2017-12-21T15:05:22.614Z,1033.1
2017-12-21T15:06:44.003Z,1033.07
2017-12-21T15:08:05.402Z,1033.15
2017-12-21T15:09:27.640Z,1033.19
2017-12-21T15:10:49.673Z,1033.3
2017-12-21T15:12:11.314Z,1033.3
2017-12-21T15:13:33.638Z,1033.36
2017-12-21T15:14:56.055Z,1033.37
2017-12-21T15:16:17.675Z,1033.4
2017-12-21T15:17:40.197Z,1033.42
2017-12-21T15:19:01.562Z,1033.42
2017-12-21T15:20:23.552Z,1033.45
2017-12-21T15:21:45.438Z,1033.47
2017-12-21T15:23:07.646Z,1033.53
2017-12-21T15:24:29.813Z,1033.58
2017-12-21T15:25:51.739Z,1033.61
2017-12-21T15:27:13.437Z,1033.6
2017-12-21T15:28:35.407Z,1033.64
2017-12-21T15:29:57.155Z,1033.65
2017-12-21T15:31:19.063Z,1033.68
2017-12-21T15:32:40.688Z,1033.68
2017-12-21T15:34:02.304Z,1033.63
2017-12-21T15:35:24.432Z,1033.65
2017-12-21T15:36:46.588Z,1033.69
2017-12-21T15:38:08.711Z,1033.72
2017-12-21T15:39:31.156Z,1033.74
2017-12-21T15:40:53.302Z,1033.8
2017-12-21T15:42:15.461Z,1033.83
2017-12-21T15:43:37.444Z,1033.85
2017-12-21T15:44:59.619Z,1033.89
2017-12-21T15:46:21.511Z,1033.91
2017-12-21T15:47:43.393Z,1033.91
2017-12-21T15:49:05.475Z,1033.83
2017-12-21T15:50:27.135Z,1033.9
2017-12-21T15:51:49.135Z,1033.86
2017-12-21T15:53:11.061Z,1033.84
2017-12-21T15:54:33.300Z,1033.9
2017-12-21T15:55:55.449Z,1033.92
2017-12-21T15:57:17.347Z,1033.91
2017-12-21T15:58:39.263Z,1033.91
2017-12-21T16:00:01.253Z,1033.87
2017-12-21T16:01:23.213Z,1033.87
2017-12-21T16:02:45.213Z,1033.94
2017-12-21T16:04:07.523Z,1033.97
2017-12-21T16:05:29.444Z,1034.01
2017-12-21T16:06:51.414Z,1034.03
2017-12-21T16:08:13.034Z,1034.09
2017-12-21T16:09:34.665Z,1034.13
2017-12-21T16:10:56.313Z,1034.16
2017-12-21T16:12:18.217Z,1034.12
2017-12-21T16:13:40.184Z,1034.14
2017-12-21T16:15:02.058Z,1034.14
2017-12-21T16:16:23.961Z,1034.17
2017-12-21T16:17:46.129Z,1034.17
2017-12-21T16:19:07.774Z,1034.17
2017-12-21T16:20:29.653Z,1034.16
2017-12-21T16:21:51.266Z,1034.12
2017-12-21T16:23:13.645Z,1034.09
2017-12-21T16:24:35.284Z,1034.03
2017-12-21T16:25:56.905Z,1033.96
2017-12-21T16:27:19.064Z,1033.93
2017-12-21T16:28:41.030Z,1033.92
2017-12-21T16:30:02.639Z,1033.86
2017-12-21T16:31:24.843Z,1033.8
2017-12-21T16:32:46.824Z,1033.75